Accueil
METAR-TAF:

METAR-TAF

Aéroports :

Port Hawkesbury, Nouvelle-Écosse, Canada

latitude: 45-40N, longitude: 061-23W, altitude: 114 m

Observation

Le bulletin a été fait il y a 32 minutes, à 04:00 UTC
Vent 5 kt de est/nord-est
Température 1°C
Humidité 75%
Pression 1025 hPa
Visibilité: 14.5 km
Ciel couvert à une hauteur de 4100 ft

METAR: CYPD 120400Z AUTO 07005KT 9SM OVC041 01/M03 A3026 RMK SLP254

Heure: 00:32 (04:32 UTC)


TAF: absent

Observations et prévisions météorologiques de plus de 4000 aéroports (messages METAR et TAF).

Les stations disponibles sont représentées par des disques jaunes et rouges sur la carte.

Passer la souris dessus pour voir le nom de la station.

Cliquer dessus pour voir les observations et prévisions météorologiques.

Pour changer de carte: cliquez sur les boutons verts avec une croix noire pour zoomer, sur le bouton vert avec un tiret pour effectuer un zoom arrière, ou sur les flèches vertes pour les cartes adjacentes.


METAR-TAF: